Time;durP1;ratioP1;P1;durP2;ratioP2;P2;SDS_P1;SDS_P2;PMS_P1;PMS_P2;Temp;Humidity;BMP_temperature;BMP_pressure;BME280_temperature;BME280_humidity;BME280_pressure;Samples;Min_cycle;Max_cycle;Signal;HPM_P1;HPM_P2
2021/04/07 00:01:03;;;;;;;;;;;;;;;10.05;88.12;99969.66;1756633;82;20271;-70
2021/04/07 00:03:35;;;;;;;;;;;;;;;10.10;88.18;99970.48;1756900;82;20256;-71
2021/04/07 00:06:06;;;;;;;;;;;;;;;10.14;88.19;99973.00;1756616;82;20290;-71
2021/04/07 00:08:38;;;;;;;;;;;;;;;10.15;88.09;99977.42;1756732;82;20288;-71
2021/04/07 00:11:11;;;;;;;;;;;;;;;10.17;88.21;99969.69;1756671;81;20191;-71
2021/04/07 00:13:44;;;;;;;;;;;;;;;10.30;88.56;99964.98;1756771;81;20517;-71
2021/04/07 00:16:15;;;;;;;;;;;;;;;10.39;88.26;99955.55;1739221;81;20341;-72
2021/04/07 00:18:48;;;;;;;;;;;;;;;10.39;87.91;99956.94;1752641;82;20191;-71
2021/04/07 00:21:20;;;;;;;;;;;;;;;10.38;87.78;99956.09;1748899;82;20262;-71
2021/04/07 00:23:51;;;;;;;;;;;;;;;10.36;87.71;99946.38;1731247;83;20187;-70
2021/04/07 00:26:23;;;;;;;;;;;;;;;10.35;87.71;99951.08;1731344;83;20532;-72
2021/04/07 00:28:55;;;;;;;;;;;;;;;10.47;88.05;99948.05;1731069;83;20607;-71
2021/04/07 00:31:27;;;;;;;;;;;;;;;10.48;87.59;99946.39;1731599;82;20199;-70
2021/04/07 00:33:58;;;;;;;;;;;;;;;10.48;87.64;99950.55;1742929;81;20291;-71
2021/04/07 00:36:31;;;;;;;;;;;;;;;10.48;87.44;99945.54;1761440;81;20295;-69
2021/04/07 00:39:03;;;;;;;;;;;;;;;10.53;87.40;99943.58;1768656;81;20589;-69
2021/04/07 00:41:35;;;;;;;;;;;;;;;10.50;86.97;99946.92;1768501;81;20295;-70
2021/04/07 00:44:08;;;;;;;;;;;;;;;10.48;86.80;99949.70;1749983;81;20184;-73
2021/04/07 00:46:40;;;;;;;;;;;;;;;10.53;86.62;99949.70;1762529;81;20258;-70
2021/04/07 00:49:11;;;;;;;;;;;;;;;10.58;86.24;99938.61;1762545;81;20270;-70
2021/04/07 00:51:44;;;;;;;;;;;;;;;10.63;85.99;99932.48;1762561;81;20259;-75
2021/04/07 00:54:16;;;;;;;;;;;;;;;10.69;85.66;99928.59;1753513;81;20257;-68
2021/04/07 00:56:48;;;;;;;;;;;;;;;10.70;85.20;99938.57;1758917;81;20251;-70
2021/04/07 00:59:21;;;;;;;;;;;;;;;10.69;85.05;99941.62;1762913;81;20557;-69
2021/04/07 01:01:53;;;;;;;;;;;;;;;10.68;84.91;99936.64;1762672;81;20584;-70
2021/04/07 01:04:25;;;;;;;;;;;;;;;10.72;84.76;99928.04;1754167;81;20194;-68
2021/04/07 01:06:56;;;;;;;;;;;;;;;10.70;84.44;99923.30;1760261;81;20286;-69
2021/04/07 01:09:28;;;;;;;;;;;;;;;10.53;84.06;99917.22;1762534;81;20252;-71
2021/04/07 01:12:02;;;;;;;;;;;;;;;10.29;84.40;99918.90;1762473;81;20286;-69
2021/04/07 01:14:34;;;;;;;;;;;;;;;10.08;84.91;99929.72;1760475;81;20252;-69
2021/04/07 01:17:06;;;;;;;;;;;;;;;10.02;85.48;99936.34;1758514;81;20251;-70
2021/04/07 01:19:38;;;;;;;;;;;;;;;10.00;85.75;99940.49;1769818;81;20212;-70
2021/04/07 01:22:09;;;;;;;;;;;;;;;9.98;85.78;99949.08;1759917;81;20432;-66
2021/04/07 01:24:41;;;;;;;;;;;;;;;9.92;85.88;99946.02;1757618;81;20293;-70
2021/04/07 01:27:13;;;;;;;;;;;;;;;9.87;86.00;99946.03;1751975;81;20251;-67
2021/04/07 01:29:46;;;;;;;;;;;;;;;9.87;86.21;99947.42;1762505;81;20187;-71
2021/04/07 01:32:17;;;;;;;;;;;;;;;9.92;86.27;99943.82;1758473;81;20266;-70
2021/04/07 01:34:49;;;;;;;;;;;;;;;9.95;86.29;99948.26;1759411;81;20291;-70
2021/04/07 01:37:21;;;;;;;;;;;;;;;10.06;86.48;99943.04;1747648;81;20257;-71
2021/04/07 01:39:52;;;;;;;;;;;;;;;10.18;86.24;99939.98;1732441;82;20293;-70
2021/04/07 01:42:25;;;;;;;;;;;;;;;10.20;85.86;99935.83;1731096;83;20237;-71
2021/04/07 01:44:56;;;;;;;;;;;;;;;10.25;85.75;99933.61;1733212;81;20307;-70
2021/04/07 01:47:28;;;;;;;;;;;;;;;10.26;85.66;99920.85;1745018;82;20596;-69
2021/04/07 01:50:00;;;;;;;;;;;;;;;10.28;85.42;99913.08;1756384;82;20248;-71
2021/04/07 01:52:32;;;;;;;;;;;;;;;10.32;85.49;99917.51;1756145;82;20583;-68
2021/04/07 01:55:04;;;;;;;;;;;;;;;10.36;85.46;99913.92;1747695;82;20226;-69
2021/04/07 01:57:37;;;;;;;;;;;;;;;10.37;85.35;99905.03;1730876;83;20262;-71
2021/04/07 02:00:13;;;;;;;;;;;;;;;10.39;85.28;99904.22;1730724;83;20317;-70
2021/04/07 02:02:45;;;;;;;;;;;;;;;10.41;85.17;99909.73;1733566;81;20259;-70
2021/04/07 02:05:17;;;;;;;;;;;;;;;10.43;85.11;99904.76;1744238;81;20299;-69
2021/04/07 02:07:49;;;;;;;;;;;;;;;10.45;85.03;99903.91;1730820;83;20247;-70
2021/04/07 02:10:20;;;;;;;;;;;;;;;10.48;85.00;99908.08;1730813;83;20329;-69
2021/04/07 02:12:59;;;;;;;;;;;;;;;10.51;84.88;99915.86;1730860;83;20527;-69
2021/04/07 02:15:31;;;;;;;;;;;;;;;10.37;84.79;99909.19;1730864;83;20614;-67
2021/04/07 02:18:02;;;;;;;;;;;;;;;10.19;85.14;99909.20;1730880;83;20199;-70
2021/04/07 02:20:39;;;;;;;;;;;;;;;10.08;85.66;99931.65;1731132;83;20512;-69
2021/04/07 02:23:10;;;;;;;;;;;;;;;10.00;86.07;99934.41;1729999;83;20214;-70
2021/04/07 02:25:43;;;;;;;;;;;;;;;10.00;86.43;99939.95;1730842;83;20531;-71
2021/04/07 02:28:14;;;;;;;;;;;;;;;9.99;86.48;99939.68;1731312;83;20194;-67
2021/04/07 02:30:46;;;;;;;;;;;;;;;9.91;86.59;99942.16;1731629;82;20294;-71
2021/04/07 02:33:18;;;;;;;;;;;;;;;9.87;86.99;99939.10;1741873;82;20311;-70
2021/04/07 02:35:49;;;;;;;;;;;;;;;9.77;87.34;99946.00;1756198;82;20187;-72
2021/04/07 02:38:21;;;;;;;;;;;;;;;9.73;87.74;99943.48;1755994;82;20273;-70
2021/04/07 02:40:54;;;;;;;;;;;;;;;9.76;88.02;99937.41;1777261;80;20254;-72
2021/04/07 02:43:26;;;;;;;;;;;;;;;9.85;88.07;99948.23;1764905;80;20530;-71
2021/04/07 02:45:59;;;;;;;;;;;;;;;9.91;87.96;99942.97;1756706;80;20255;-69
2021/04/07 02:48:30;;;;;;;;;;;;;;;9.97;88.03;99932.17;1778309;80;20224;-72
2021/04/07 02:51:03;;;;;;;;;;;;;;;9.98;88.10;99925.51;1752850;82;20578;-71
2021/04/07 02:53:35;;;;;;;;;;;;;;;10.04;88.18;99920.28;1752487;82;20190;-69
2021/04/07 02:56:07;;;;;;;;;;;;;;;10.09;87.91;99927.80;1752800;82;20305;-74
2021/04/07 02:58:39;;;;;;;;;;;;;;;10.09;87.83;99938.89;1752373;82;20262;-69
2021/04/07 03:01:12;;;;;;;;;;;;;;;10.06;87.55;99935.27;1761681;80;20277;-70
2021/04/07 03:03:45;;;;;;;;;;;;;;;10.06;87.73;99941.66;1752474;82;20217;-69
2021/04/07 03:06:17;;;;;;;;;;;;;;;10.07;87.73;99947.48;1778945;80;20338;-68
2021/04/07 03:08:49;;;;;;;;;;;;;;;10.04;87.73;99954.94;1784006;80;20255;-70
2021/04/07 03:11:21;;;;;;;;;;;;;;;10.00;87.79;99949.66;1770165;80;20210;-69
2021/04/07 03:13:55;;;;;;;;;;;;;;;9.94;87.82;99949.38;1764491;80;20535;-68
2021/04/07 03:16:27;;;;;;;;;;;;;;;9.98;88.20;99950.46;1764597;80;20646;-66
2021/04/07 03:18:59;;;;;;;;;;;;;;;10.02;88.17;99959.91;1774350;80;20261;-67
2021/04/07 03:21:30;;;;;;;;;;;;;;;10.02;88.22;99958.52;1773656;80;20371;-69
2021/04/07 03:24:02;;;;;;;;;;;;;;;10.06;88.32;99968.54;1755095;80;20285;-68
2021/04/07 03:26:34;;;;;;;;;;;;;;;10.14;88.54;99962.44;1752626;82;20249;-68
2021/04/07 03:29:07;;;;;;;;;;;;;;;10.18;88.24;99963.56;1752528;82;20182;-67
2021/04/07 03:31:38;;;;;;;;;;;;;;;10.18;88.20;99964.95;1759989;80;20245;-69
2021/04/07 03:34:10;;;;;;;;;;;;;;;10.24;88.25;99968.86;1752465;82;20189;-71
2021/04/07 03:36:41;;;;;;;;;;;;;;;10.23;88.06;99960.26;1766172;80;20347;-68
2021/04/07 03:39:14;;;;;;;;;;;;;;;10.25;88.27;99959.42;1757780;80;20308;-72
2021/04/07 03:41:46;;;;;;;;;;;;;;;10.30;88.26;99959.42;1742570;82;20257;-70
2021/04/07 03:44:18;;;;;;;;;;;;;;;10.39;88.38;99957.75;1740695;81;20258;-70
2021/04/07 03:46:53;;;;;;;;;;;;;;;10.48;88.19;99956.64;1769370;81;20243;-70
2021/04/07 03:49:25;;;;;;;;;;;;;;;10.48;87.79;99956.09;1767423;81;20254;-72
2021/04/07 03:51:57;;;;;;;;;;;;;;;10.53;87.97;99965.78;1742451;81;20198;-71
2021/04/07 03:54:28;;;;;;;;;;;;;;;10.61;87.83;99965.78;1739244;82;20255;-68
2021/04/07 03:57:01;;;;;;;;;;;;;;;10.55;87.46;99953.02;1748557;81;20262;-68
2021/04/07 03:59:32;;;;;;;;;;;;;;;10.47;87.45;99950.25;1755638;81;20415;-71
2021/04/07 04:02:04;;;;;;;;;;;;;;;10.47;87.73;99955.80;1763083;81;20208;-72
2021/04/07 04:04:35;;;;;;;;;;;;;;;10.51;87.72;99950.55;1769928;81;20180;-70
2021/04/07 04:07:07;;;;;;;;;;;;;;;10.49;87.54;99946.66;1769886;81;20291;-69
2021/04/07 04:09:40;;;;;;;;;;;;;;;10.47;87.62;99954.41;1762315;81;20587;-70
2021/04/07 04:12:13;;;;;;;;;;;;;;;10.50;87.67;99962.19;1748274;81;20583;-69
2021/04/07 04:14:46;;;;;;;;;;;;;;;10.53;87.55;99967.17;1762577;81;20563;-68
2021/04/07 04:17:17;;;;;;;;;;;;;;;10.58;87.59;99969.14;1748500;81;20251;-72
2021/04/07 04:19:50;;;;;;;;;;;;;;;10.62;87.49;99966.06;1740389;81;20246;-71
2021/04/07 04:22:21;;;;;;;;;;;;;;;10.67;87.41;99963.28;1742628;81;20262;-69
2021/04/07 04:24:54;;;;;;;;;;;;;;;10.74;87.34;99968.84;1746826;81;20226;-73
2021/04/07 04:27:25;;;;;;;;;;;;;;;10.86;87.32;99975.47;1762562;81;20592;-69
2021/04/07 04:29:57;;;;;;;;;;;;;;;10.91;86.89;99973.54;1739668;81;20266;-70
2021/04/07 04:32:29;;;;;;;;;;;;;;;10.95;86.83;99982.95;1739343;82;20259;-71
2021/04/07 04:35:01;;;;;;;;;;;;;;;10.98;86.48;99980.17;1746894;81;20211;-70
2021/04/07 04:37:34;;;;;;;;;;;;;;;11.03;86.37;99994.05;1749695;81;20555;-71
2021/04/07 04:40:07;;;;;;;;;;;;;;;11.05;85.98;99992.66;1739401;82;20190;-71
2021/04/07 04:42:39;;;;;;;;;;;;;;;11.10;86.01;99998.76;1745434;81;20311;-70
2021/04/07 04:45:11;;;;;;;;;;;;;;;11.10;85.64;99991.81;1741908;81;20254;-70
2021/04/07 04:47:42;;;;;;;;;;;;;;;11.10;85.58;99995.44;1741714;81;20265;-69
2021/04/07 04:50:15;;;;;;;;;;;;;;;11.06;85.47;99999.88;1744314;81;20659;-71
2021/04/07 04:52:46;;;;;;;;;;;;;;;11.01;85.30;99994.33;1742641;81;20258;-70
2021/04/07 04:55:23;;;;;;;;;;;;;;;10.97;85.16;100000.19;1744190;82;20251;-72
2021/04/07 04:57:55;;;;;;;;;;;;;;;11.01;85.53;100003.23;1744299;81;20302;-70
2021/04/07 05:00:27;;;;;;;;;;;;;;;11.11;85.51;100012.38;1742953;82;20254;-69
2021/04/07 05:03:02;;;;;;;;;;;;;;;11.15;85.10;100016.27;1743057;81;20198;-73
2021/04/07 05:05:34;;;;;;;;;;;;;;;11.13;85.05;100019.05;1738012;81;20318;-70
2021/04/07 05:08:06;;;;;;;;;;;;;;;11.08;85.04;100017.66;1731734;81;20190;-70
2021/04/07 05:10:38;;;;;;;;;;;;;;;11.08;85.10;100013.50;1734374;81;20254;-68
2021/04/07 05:13:10;;;;;;;;;;;;;;;11.06;85.31;100004.05;1741659;82;20301;-71
2021/04/07 05:15:42;;;;;;;;;;;;;;;11.05;85.31;100001.00;1740020;81;20191;-70
2021/04/07 05:18:14;;;;;;;;;;;;;;;11.11;85.52;100000.42;1740596;81;20298;-70
2021/04/07 05:20:48;;;;;;;;;;;;;;;11.14;85.27;100009.59;1741086;82;20259;-72
2021/04/07 05:23:19;;;;;;;;;;;;;;;11.17;85.15;100016.81;1756721;82;20319;-72
2021/04/07 05:25:51;;;;;;;;;;;;;;;11.18;84.84;100008.75;1755709;82;20307;-70
2021/04/07 05:28:23;;;;;;;;;;;;;;;11.18;84.60;100004.58;1740582;82;20210;-69
2021/04/07 05:31:00;;;;;;;;;;;;;;;11.26;84.78;100012.33;1743755;81;20208;-74
2021/04/07 05:33:35;;;;;;;;;;;;;;;11.31;84.53;100015.67;1746545;81;20247;-68
2021/04/07 05:36:08;;;;;;;;;;;;;;;11.36;84.42;100019.26;1740200;81;20223;-68
2021/04/07 05:38:40;;;;;;;;;;;;;;;11.42;84.09;100013.95;1745179;81;20271;-72
2021/04/07 05:41:15;;;;;;;;;;;;;;;11.49;83.91;100013.09;1742320;82;20298;-71
2021/04/07 05:43:46;;;;;;;;;;;;;;;11.52;83.59;100011.70;1743129;81;20283;-68
2021/04/07 05:46:18;;;;;;;;;;;;;;;11.49;83.21;99999.20;1738437;81;20215;-71
2021/04/07 05:48:50;;;;;;;;;;;;;;;11.52;83.22;99988.92;1741768;81;20252;-68
2021/04/07 05:51:22;;;;;;;;;;;;;;;11.56;83.15;99989.18;1743763;81;20306;-72
2021/04/07 05:53:53;;;;;;;;;;;;;;;11.60;82.93;99991.13;1742633;81;20292;-73
2021/04/07 05:56:27;;;;;;;;;;;;;;;11.62;82.95;99987.50;1742528;81;20330;-71
2021/04/07 05:58:59;;;;;;;;;;;;;;;11.69;82.61;99989.98;1741518;81;20670;-71
2021/04/07 06:01:31;;;;;;;;;;;;;;;11.78;82.44;99986.87;1740506;81;20343;-70
2021/04/07 06:04:02;;;;;;;;;;;;;;;11.82;81.88;99997.16;1741100;81;20252;-72
2021/04/07 06:06:34;;;;;;;;;;;;;;;11.82;81.81;99999.94;1740806;81;20250;-70
2021/04/07 06:09:09;;;;;;;;;;;;;;;11.84;81.71;99995.45;1738906;81;20246;-70
2021/04/07 06:11:41;;;;;;;;;;;;;;;11.84;81.29;99999.08;1739234;81;20579;-68
2021/04/07 06:14:15;;;;;;;;;;;;;;;11.83;81.20;99997.42;1739534;81;20267;-70
2021/04/07 06:16:47;;;;;;;;;;;;;;;11.82;81.23;99990.75;1739569;81;20616;-69
2021/04/07 06:19:19;;;;;;;;;;;;;;;11.81;81.10;99987.13;1738203;81;20222;-70
2021/04/07 06:21:51;;;;;;;;;;;;;;;11.80;80.98;99987.43;1743835;81;20211;-72
2021/04/07 06:24:22;;;;;;;;;;;;;;;11.75;80.95;99988.27;1745374;81;20261;-71
2021/04/07 06:26:58;;;;;;;;;;;;;;;11.76;81.02;99984.94;1737731;81;20187;-67
2021/04/07 06:29:35;;;;;;;;;;;;;;;11.78;80.81;99980.76;1711150;83;20256;-68
2021/04/07 06:32:09;;;;;;;;;;;;;;;11.84;80.63;99983.78;1712165;83;20257;-71
2021/04/07 06:34:42;;;;;;;;;;;;;;;11.92;80.15;99981.78;1705944;83;20243;-73
2021/04/07 06:37:14;;;;;;;;;;;;;;;11.90;79.98;99979.02;1708477;83;20611;-71
2021/04/07 06:39:47;;;;;;;;;;;;;;;11.90;79.72;99979.86;1712253;83;20245;-70
2021/04/07 06:42:19;;;;;;;;;;;;;;;11.86;79.53;99987.68;1712724;83;20383;-74
2021/04/07 06:44:51;;;;;;;;;;;;;;;11.84;79.49;99981.00;1716952;82;20264;-72
2021/04/07 06:47:23;;;;;;;;;;;;;;;11.85;79.29;99978.48;1719672;82;20200;-77
2021/04/07 06:49:57;;;;;;;;;;;;;;;11.86;79.06;99983.51;1720117;82;20293;-74
2021/04/07 06:52:29;;;;;;;;;;;;;;;11.92;79.14;99985.14;1721498;82;20264;-78
2021/04/07 06:55:01;;;;;;;;;;;;;;;11.99;78.92;99989.83;1723696;82;20296;-82
2021/04/07 06:57:33;;;;;;;;;;;;;;;12.06;78.71;99988.40;1718047;82;20295;-75
2021/04/07 07:00:07;;;;;;;;;;;;;;;12.15;78.53;99995.55;1728208;82;20583;-81
2021/04/07 07:02:39;;;;;;;;;;;;;;;12.20;78.11;99992.74;1731216;82;20614;-74
2021/04/07 07:05:13;;;;;;;;;;;;;;;12.19;77.38;99990.53;1719141;82;20264;-76
2021/04/07 07:07:47;;;;;;;;;;;;;;;12.22;77.35;99996.09;1715905;82;20239;-84
2021/04/07 07:10:20;;;;;;;;;;;;;;;12.30;77.23;99995.47;1712196;82;20252;-70
2021/04/07 07:12:52;;;;;;;;;;;;;;;12.40;76.93;99994.02;1725958;82;20372;-71
2021/04/07 07:15:23;;;;;;;;;;;;;;;12.47;76.71;99994.52;1684820;82;20256;-74
2021/04/07 07:17:55;;;;;;;;;;;;;;;12.55;76.62;100003.63;1699744;82;20186;-71
2021/04/07 07:20:29;;;;;;;;;;;;;;;12.57;75.87;100000.83;1717821;82;20186;-71
2021/04/07 07:23:00;;;;;;;;;;;;;;;12.52;75.53;99994.45;1717965;82;20260;-73
2021/04/07 07:25:32;;;;;;;;;;;;;;;12.51;75.35;100001.14;1715970;82;20512;-75
2021/04/07 07:28:06;;;;;;;;;;;;;;;12.54;75.07;100001.39;1716159;82;20224;-83
2021/04/07 07:30:45;;;;;;;;;;;;;;;12.57;74.94;100002.77;1717552;82;20240;-75
2021/04/07 07:33:23;;;;;;;;;;;;;;;12.58;74.89;100006.66;1717560;82;20241;-70
2021/04/07 07:35:58;;;;;;;;;;;;;;;12.60;74.74;100009.98;1716579;82;20228;-67
2021/04/07 07:38:30;;;;;;;;;;;;;;;12.53;74.45;100012.27;1712867;82;20231;-71
2021/04/07 07:41:05;;;;;;;;;;;;;;;12.43;74.60;100023.50;1716375;82;21100;-71
2021/04/07 07:43:37;;;;;;;;;;;;;;;12.42;74.86;100021.80;1718540;82;20713;-68
2021/04/07 07:46:14;;;;;;;;;;;;;;;12.40;74.60;100028.81;1710117;82;20573;-72
2021/04/07 07:48:47;;;;;;;;;;;;;;;12.35;74.91;100030.23;1709961;83;20244;-68
2021/04/07 07:51:20;;;;;;;;;;;;;;;12.34;74.99;100031.36;1711220;83;20228;-72
2021/04/07 07:53:53;;;;;;;;;;;;;;;12.35;75.03;100024.66;1711034;83;20617;-69
2021/04/07 07:56:34;;;;;;;;;;;;;;;12.37;74.93;100019.08;1709790;83;20245;-70
2021/04/07 07:59:06;;;;;;;;;;;;;;;12.38;74.75;100020.74;1709205;83;20296;-73
2021/04/07 08:01:44;;;;;;;;;;;;;;;12.41;74.87;100018.75;1707170;83;20418;-71
2021/04/07 08:04:17;;;;;;;;;;;;;;;12.44;74.98;100012.63;1710208;83;20208;-71
2021/04/07 08:06:49;;;;;;;;;;;;;;;12.48;75.04;100013.69;1710035;83;20259;-68
2021/04/07 08:09:21;;;;;;;;;;;;;;;12.49;74.81;100008.97;1711795;83;21063;-69
2021/04/07 08:11:52;;;;;;;;;;;;;;;12.46;74.75;100001.20;1709963;83;20623;-68
2021/04/07 08:14:25;;;;;;;;;;;;;;;12.40;74.76;100000.39;1712519;83;20270;-71
2021/04/07 08:16:56;;;;;;;;;;;;;;;12.38;74.85;100003.20;1711444;83;20284;-70
2021/04/07 08:19:28;;;;;;;;;;;;;;;12.34;75.06;99996.56;1710410;83;20267;-69
2021/04/07 08:22:00;;;;;;;;;;;;;;;12.35;74.95;99996.25;1710205;83;20329;-71
2021/04/07 08:24:32;;;;;;;;;;;;;;;12.38;74.77;99994.84;1715025;83;20241;-68
2021/04/07 08:27:03;;;;;;;;;;;;;;;12.43;74.50;99995.66;1713108;83;20578;-71
2021/04/07 08:29:37;;;;;;;;;;;;;;;12.46;74.56;99993.67;1707483;83;20258;-69
2021/04/07 08:32:10;;;;;;;;;;;;;;;12.52;74.44;99982.77;1706525;83;20182;-70
2021/04/07 08:34:41;;;;;;;;;;;;;;;12.54;73.99;99976.33;1726602;83;20278;-71
2021/04/07 08:37:18;;;;;;;;;;;;;;;12.50;73.53;99976.66;1704706;83;20226;-67
2021/04/07 08:39:49;;;;;;;;;;;;;;;12.41;73.62;99967.25;1715660;83;20258;-69
2021/04/07 08:42:22;;;;;;;;;;;;;;;12.38;73.60;99967.85;1707273;83;20459;-72
2021/04/07 08:44:54;;;;;;;;;;;;;;;12.37;73.84;99970.37;1712741;83;20261;-68
2021/04/07 08:47:41;;;;;;;;;;;;;;;12.40;74.04;99979.52;1718904;82;20257;-68
2021/04/07 08:50:07;;;;;;;;;;;;;;;12.49;74.10;99983.36;1719422;82;20295;-69
2021/04/07 08:52:49;;;;;;;;;;;;;;;12.59;73.78;99986.04;1722798;82;20192;-70
2021/04/07 08:55:27;;;;;;;;;;;;;;;12.69;73.76;99979.00;1721643;82;20257;-68
2021/04/07 08:58:00;;;;;;;;;;;;;;;12.77;73.34;99974.19;1721507;82;20190;-68
2021/04/07 09:00:34;;;;;;;;;;;;;;;12.80;73.17;99979.73;1720659;82;20593;-69
2021/04/07 09:03:14;;;;;;;;;;;;;;;12.79;72.95;99986.44;1721151;82;20185;-70
2021/04/07 09:05:46;;;;;;;;;;;;;;;12.79;72.96;99995.64;1715973;82;20550;-68
2021/04/07 09:08:22;;;;;;;;;;;;;;;12.83;73.09;99995.30;1719361;82;20312;-71
2021/04/07 09:10:55;;;;;;;;;;;;;;;12.88;72.99;99999.98;1717681;82;20220;-70
2021/04/07 09:13:28;;;;;;;;;;;;;;;12.93;72.88;99995.22;1716040;82;20228;-70
2021/04/07 09:16:08;;;;;;;;;;;;;;;12.96;72.63;99991.86;1713334;82;20412;-73
2021/04/07 09:18:43;;;;;;;;;;;;;;;12.98;72.47;99999.39;1719041;82;21068;-71
2021/04/07 09:21:20;;;;;;;;;;;;;;;13.00;72.29;100015.79;1718675;82;20337;-69
2021/04/07 09:24:00;;;;;;;;;;;;;;;12.93;72.22;100020.30;1721891;82;20261;-68
2021/04/07 09:26:32;;;;;;;;;;;;;;;12.87;72.18;100019.22;1716930;82;20225;-68
2021/04/07 09:29:05;;;;;;;;;;;;;;;12.81;72.40;100042.12;1719375;82;20245;-69
2021/04/07 09:31:39;;;;;;;;;;;;;;;12.76;72.55;100040.77;1721347;82;20542;-68
2021/04/07 09:34:14;;;;;;;;;;;;;;;12.80;72.77;100059.97;1718601;82;20254;-69
2021/04/07 09:36:47;;;;;;;;;;;;;;;12.80;72.91;100058.58;1709700;82;20248;-73
2021/04/07 09:39:26;;;;;;;;;;;;;;;12.80;73.07;100065.55;1719025;82;20615;-68
2021/04/07 09:41:58;;;;;;;;;;;;;;;12.82;72.88;100056.88;1725477;82;20360;-72
2021/04/07 09:44:29;;;;;;;;;;;;;;;12.84;72.84;100044.32;1722634;82;20301;-70
2021/04/07 09:47:03;;;;;;;;;;;;;;;12.87;72.56;100054.90;1719813;82;20362;-70
2021/04/07 09:49:35;;;;;;;;;;;;;;;12.89;72.22;100054.03;1713447;83;20284;-68
2021/04/07 09:52:08;;;;;;;;;;;;;;;12.89;72.17;100048.46;1708798;83;20249;-68
2021/04/07 09:54:41;;;;;;;;;;;;;;;12.92;72.20;100050.68;1715586;83;20255;-73
2021/04/07 09:57:12;;;;;;;;;;;;;;;12.91;72.19;100046.20;1712494;83;20191;-69
2021/04/07 09:59:52;;;;;;;;;;;;;;;12.84;72.42;100040.14;1712093;83;20228;-72
2021/04/07 10:02:29;;;;;;;;;;;;;;;12.77;72.76;100041.62;1714895;83;20672;-70
2021/04/07 10:05:04;;;;;;;;;;;;;;;12.73;73.20;100048.34;1702752;83;20252;-73
2021/04/07 10:07:38;;;;;;;;;;;;;;;12.71;73.32;100052.53;1711239;83;20265;-73
2021/04/07 10:10:12;;;;;;;;;;;;;;;12.67;73.44;100055.06;1707211;83;20252;-71
2021/04/07 10:12:43;;;;;;;;;;;;;;;12.63;73.68;100066.50;1707592;83;20655;-70
2021/04/07 10:15:18;;;;;;;;;;;;;;;12.62;73.68;100068.17;1712335;83;20253;-71
2021/04/07 10:17:49;;;;;;;;;;;;;;;12.58;73.67;100074.89;1709428;83;20609;-73
2021/04/07 10:20:25;;;;;;;;;;;;;;;12.59;73.37;100091.86;1711334;83;20586;-72
2021/04/07 10:22:57;;;;;;;;;;;;;;;12.56;72.99;100098.03;1710147;83;20336;-70
2021/04/07 10:25:29;;;;;;;;;;;;;;;12.54;72.85;100114.75;1711114;83;20234;-78
2021/04/07 10:28:01;;;;;;;;;;;;;;;12.53;72.01;100133.39;1710513;83;20193;-75
2021/04/07 10:30:43;;;;;;;;;;;;;;;12.46;70.87;100134.27;1709015;83;20188;-77
2021/04/07 10:33:15;;;;;;;;;;;;;;;12.32;70.92;100144.38;1710008;83;20295;-72
2021/04/07 10:35:47;;;;;;;;;;;;;;;12.17;71.07;100165.87;1703398;83;20272;-68
2021/04/07 10:38:22;;;;;;;;;;;;;;;11.97;71.41;100168.16;1709743;82;20229;-73
2021/04/07 10:41:00;;;;;;;;;;;;;;;11.68;71.94;100185.75;1711616;83;20355;-75
2021/04/07 10:43:34;;;;;;;;;;;;;;;11.38;72.25;100197.67;1709692;83;20264;-71
2021/04/07 10:46:08;;;;;;;;;;;;;;;11.07;72.68;100205.72;1709712;83;20292;-69
2021/04/07 10:48:42;;;;;;;;;;;;;;;10.79;72.29;100197.91;1708265;83;20601;-70
2021/04/07 10:51:17;;;;;;;;;;;;;;;10.57;72.53;100195.89;1707348;83;20434;-75
2021/04/07 10:53:58;;;;;;;;;;;;;;;10.47;73.12;100205.56;1707353;83;20185;-70
2021/04/07 10:56:31;;;;;;;;;;;;;;;10.41;73.31;100209.99;1716428;83;20191;-73
2021/04/07 10:59:05;;;;;;;;;;;;;;;10.34;73.36;100201.09;1709531;83;20575;-74
2021/04/07 11:01:37;;;;;;;;;;;;;;;10.21;72.91;100221.83;1713226;83;20186;-69
2021/04/07 11:04:14;;;;;;;;;;;;;;;10.03;72.09;100231.14;1714229;83;20217;-71
2021/04/07 11:06:47;;;;;;;;;;;;;;;9.82;72.56;100221.85;1712398;83;20323;-69
2021/04/07 11:09:22;;;;;;;;;;;;;;;9.68;73.29;100219.81;1709591;83;20197;-69
2021/04/07 11:11:54;;;;;;;;;;;;;;;9.50;73.51;100201.68;1706864;83;20224;-69
2021/04/07 11:14:33;;;;;;;;;;;;;;;9.42;74.17;100201.33;1699399;83;20593;-74
2021/04/07 11:17:10;;;;;;;;;;;;;;;9.34;74.46;100215.11;1717358;83;20274;-70
2021/04/07 11:19:46;;;;;;;;;;;;;;;9.34;74.90;100214.27;1715945;83;20252;-73
2021/04/07 11:22:19;;;;;;;;;;;;;;;9.33;74.72;100224.53;1709883;83;20391;-72
2021/04/07 11:25:04;;;;;;;;;;;;;;;9.32;74.52;100227.55;1636237;87;20290;-73
2021/04/07 11:27:39;;;;;;;;;;;;;;;9.29;74.51;100222.52;1648451;85;20197;-73
2021/04/07 11:30:11;;;;;;;;;;;;;;;9.25;74.56;100221.41;1645333;87;20229;-71
2021/04/07 11:32:47;;;;;;;;;;;;;;;9.21;74.59;100225.25;1650064;85;20220;-71
2021/04/07 11:38:10;;;;;;;;;;;;;;;9.21;75.01;100250.72;1653358;85;20707;-71
2021/04/07 11:46:08;;;;;;;;;;;;;;;9.03;74.37;100274.08;1638507;85;20250;-71
2021/04/07 11:48:42;;;;;;;;;;;;;;;8.90;74.15;100264.81;1638500;83;20286;-72
2021/04/07 11:51:15;;;;;;;;;;;;;;;8.81;74.54;100281.58;1706008;83;20340;-68
2021/04/07 11:53:53;;;;;;;;;;;;;;;8.74;74.64;100268.49;1705467;83;20190;-74
2021/04/07 11:56:27;;;;;;;;;;;;;;;8.68;74.87;100280.59;1710950;83;20170;-71
2021/04/07 11:59:00;;;;;;;;;;;;;;;8.72;75.49;100280.91;1709677;83;20374;-71
2021/04/07 12:01:35;;;;;;;;;;;;;;;8.77;75.23;100291.52;1715697;83;20332;-79
2021/04/07 12:04:07;;;;;;;;;;;;;;;8.79;75.18;100295.38;1710460;83;20327;-71
2021/04/07 12:06:39;;;;;;;;;;;;;;;8.79;74.57;100303.69;1710998;83;20241;-71
2021/04/07 12:09:16;;;;;;;;;;;;;;;8.77;74.16;100311.42;1712901;83;20287;-70
2021/04/07 12:11:47;;;;;;;;;;;;;;;8.67;73.55;100332.03;1708804;83;20241;-72
2021/04/07 12:14:20;;;;;;;;;;;;;;;8.63;73.32;100322.03;1706864;83;20182;-73
2021/04/07 12:16:52;;;;;;;;;;;;;;;8.62;73.65;100323.12;1708618;83;20251;-74
2021/04/07 12:19:26;;;;;;;;;;;;;;;8.58;73.56;100327.50;1706913;83;20252;-74
2021/04/07 12:21:58;;;;;;;;;;;;;;;8.51;73.23;100336.53;1709342;83;20221;-70
2021/04/07 12:24:29;;;;;;;;;;;;;;;8.45;73.59;100346.42;1710011;83;20383;-72
2021/04/07 12:27:04;;;;;;;;;;;;;;;8.37;72.99;100354.59;1703806;83;20418;-71
2021/04/07 12:29:37;;;;;;;;;;;;;;;8.26;72.21;100343.66;1700530;83;20265;-75
2021/04/07 12:32:17;;;;;;;;;;;;;;;8.18;72.29;100360.62;1709343;83;20326;-72
2021/04/07 12:34:47;;;;;;;;;;;;;;;8.14;72.14;100359.48;1698444;83;20676;-71
2021/04/07 12:37:28;;;;;;;;;;;;;;;8.08;71.90;100339.75;1711381;83;20214;-72
2021/04/07 12:40:00;;;;;;;;;;;;;;;8.04;71.73;100349.63;1709733;83;20589;-70
2021/04/07 12:42:32;;;;;;;;;;;;;;;7.98;71.85;100384.66;1706835;83;20295;-72
2021/04/07 12:45:05;;;;;;;;;;;;;;;7.91;72.24;100395.58;1709002;83;20574;-70
2021/04/07 12:47:37;;;;;;;;;;;;;;;7.87;72.27;100390.25;1707341;83;20312;-71
2021/04/07 12:50:10;;;;;;;;;;;;;;;7.83;72.42;100396.83;1714685;82;20579;-71
2021/04/07 12:52:41;;;;;;;;;;;;;;;7.86;72.55;100392.19;1710604;83;20252;-68
2021/04/07 12:55:15;;;;;;;;;;;;;;;7.92;72.91;100393.95;1714628;83;20250;-71
2021/04/07 12:57:52;;;;;;;;;;;;;;;7.94;72.28;100401.44;1684851;83;20173;-72
2021/04/07 13:00:24;;;;;;;;;;;;;;;7.96;71.84;100414.45;1715459;83;20240;-71
2021/04/07 13:02:56;;;;;;;;;;;;;;;7.91;71.23;100408.84;1711586;83;20217;-73
2021/04/07 13:05:29;;;;;;;;;;;;;;;7.93;71.49;100408.06;1713775;83;20583;-70
2021/04/07 13:08:01;;;;;;;;;;;;;;;7.97;70.85;100405.63;1715280;83;20293;-73
2021/04/07 13:10:38;;;;;;;;;;;;;;;7.96;70.56;100412.25;1713228;83;20186;-71
2021/04/07 13:13:06;;;;;;;;;;;;;;;7.94;70.36;100402.83;1711316;83;20653;-70
2021/04/07 13:15:38;;;;;;;;;;;;;;;7.92;70.18;100407.77;1708748;83;20194;-72
2021/04/07 13:18:10;;;;;;;;;;;;;;;7.90;69.99;100420.98;1712892;83;20261;-71
2021/04/07 13:20:48;;;;;;;;;;;;;;;7.90;70.18;100420.98;1716250;83;20523;-72
2021/04/07 13:23:19;;;;;;;;;;;;;;;7.91;69.96;100433.70;1717733;83;20757;-71